sensor_id;sensor_type;location;lat;lon;timestamp;pressure;altitude;pressure_sealevel;temperature;humidity
64610;BME280;51019;46.090;6.350;2023-02-23T00:01:38;96349.63;;;6.16;100.00
64610;BME280;51019;46.090;6.350;2023-02-23T00:04:06;96336.25;;;6.10;100.00
64610;BME280;51019;46.090;6.350;2023-02-23T00:06:35;96350.88;;;6.44;100.00
64610;BME280;51019;46.090;6.350;2023-02-23T00:09:06;96346.13;;;6.61;100.00
64610;BME280;51019;46.090;6.350;2023-02-23T00:11:47;96347.50;;;6.76;100.00
64610;BME280;51019;46.090;6.350;2023-02-23T00:14:14;96345.56;;;6.78;100.00
64610;BME280;51019;46.090;6.350;2023-02-23T00:16:41;96328.69;;;6.72;100.00
64610;BME280;51019;46.090;6.350;2023-02-23T00:19:11;96311.31;;;6.62;100.00
64610;BME280;51019;46.090;6.350;2023-02-23T00:21:39;96348.41;;;6.86;100.00
64610;BME280;51019;46.090;6.350;2023-02-23T00:24:11;96327.66;;;6.64;100.00
64610;BME280;51019;46.090;6.350;2023-02-23T00:26:44;96358.16;;;6.73;100.00
64610;BME280;51019;46.090;6.350;2023-02-23T00:29:14;96352.28;;;6.60;100.00
64610;BME280;51019;46.090;6.350;2023-02-23T00:31:42;96351.34;;;6.49;100.00
64610;BME280;51019;46.090;6.350;2023-02-23T00:34:11;96347.81;;;6.39;100.00
64610;BME280;51019;46.090;6.350;2023-02-23T00:36:40;96258.00;;;5.79;100.00
64610;BME280;51019;46.090;6.350;2023-02-23T00:39:11;96340.97;;;6.38;100.00
64610;BME280;51019;46.090;6.350;2023-02-23T00:41:45;96347.59;;;6.42;100.00
64610;BME280;51019;46.090;6.350;2023-02-23T00:44:13;96346.06;;;6.40;100.00
64610;BME280;51019;46.090;6.350;2023-02-23T00:46:44;96342.03;;;6.36;100.00
64610;BME280;51019;46.090;6.350;2023-02-23T00:49:17;96336.59;;;6.28;100.00
64610;BME280;51019;46.090;6.350;2023-02-23T00:51:45;96342.66;;;6.17;100.00
64610;BME280;51019;46.090;6.350;2023-02-23T00:54:16;96339.84;;;6.09;100.00
64610;BME280;51019;46.090;6.350;2023-02-23T00:56:44;96337.69;;;6.03;100.00
64610;BME280;51019;46.090;6.350;2023-02-23T00:59:12;96332.25;;;5.83;100.00
64610;BME280;51019;46.090;6.350;2023-02-23T01:01:40;96306.56;;;5.68;100.00
64610;BME280;51019;46.090;6.350;2023-02-23T01:04:08;96326.66;;;5.77;100.00
64610;BME280;51019;46.090;6.350;2023-02-23T01:06:38;96332.81;;;5.76;100.00
64610;BME280;51019;46.090;6.350;2023-02-23T01:09:08;96336.50;;;5.73;100.00
64610;BME280;51019;46.090;6.350;2023-02-23T01:11:37;96331.41;;;5.72;100.00
64610;BME280;51019;46.090;6.350;2023-02-23T01:14:06;96305.63;;;5.69;100.00
64610;BME280;51019;46.090;6.350;2023-02-23T01:16:34;96327.16;;;5.82;100.00
64610;BME280;51019;46.090;6.350;2023-02-23T01:19:03;96305.28;;;5.73;100.00
64610;BME280;51019;46.090;6.350;2023-02-23T01:21:33;96319.94;;;6.19;100.00
64610;BME280;51019;46.090;6.350;2023-02-23T01:24:01;96317.47;;;6.17;100.00
64610;BME280;51019;46.090;6.350;2023-02-23T01:26:29;96324.69;;;6.03;100.00
64610;BME280;51019;46.090;6.350;2023-02-23T01:29:03;96284.47;;;5.73;100.00
64610;BME280;51019;46.090;6.350;2023-02-23T01:31:33;96328.00;;;5.94;100.00
64610;BME280;51019;46.090;6.350;2023-02-23T01:34:02;96325.28;;;5.95;100.00
64610;BME280;51019;46.090;6.350;2023-02-23T01:36:33;96328.81;;;5.83;100.00
64610;BME280;51019;46.090;6.350;2023-02-23T01:39:04;96286.97;;;5.53;100.00
64610;BME280;51019;46.090;6.350;2023-02-23T01:41:33;96314.16;;;5.71;100.00
64610;BME280;51019;46.090;6.350;2023-02-23T01:44:05;96325.50;;;5.70;100.00
64610;BME280;51019;46.090;6.350;2023-02-23T01:46:34;96305.41;;;5.72;100.00
64610;BME280;51019;46.090;6.350;2023-02-23T01:49:03;96304.47;;;6.06;100.00
64610;BME280;51019;46.090;6.350;2023-02-23T01:51:37;96315.72;;;6.50;100.00
64610;BME280;51019;46.090;6.350;2023-02-23T01:54:09;96311.84;;;6.33;100.00
64610;BME280;51019;46.090;6.350;2023-02-23T01:56:42;96307.28;;;6.14;100.00
64610;BME280;51019;46.090;6.350;2023-02-23T01:59:14;96304.25;;;6.09;100.00
64610;BME280;51019;46.090;6.350;2023-02-23T02:01:42;96298.66;;;6.03;100.00
64610;BME280;51019;46.090;6.350;2023-02-23T02:04:10;96298.06;;;5.99;100.00
64610;BME280;51019;46.090;6.350;2023-02-23T02:06:42;96293.72;;;5.89;100.00
64610;BME280;51019;46.090;6.350;2023-02-23T02:09:14;96300.69;;;5.88;100.00
64610;BME280;51019;46.090;6.350;2023-02-23T02:11:43;96273.50;;;5.59;100.00
64610;BME280;51019;46.090;6.350;2023-02-23T02:14:17;96290.13;;;5.78;100.00
64610;BME280;51019;46.090;6.350;2023-02-23T02:16:58;96291.34;;;5.86;100.00
64610;BME280;51019;46.090;6.350;2023-02-23T02:25:46;96287.06;;;6.18;100.00
64610;BME280;51019;46.090;6.350;2023-02-23T02:31:37;96279.00;;;6.21;100.00
64610;BME280;51019;46.090;6.350;2023-02-23T02:37:39;96274.84;;;6.30;100.00
64610;BME280;51019;46.090;6.350;2023-02-23T02:40:19;96273.66;;;6.23;100.00
64610;BME280;51019;46.090;6.350;2023-02-23T02:43:04;96268.00;;;6.29;100.00
64610;BME280;51019;46.090;6.350;2023-02-23T02:45:40;96271.94;;;6.01;100.00
64610;BME280;51019;46.090;6.350;2023-02-23T02:48:17;96260.50;;;5.92;100.00
64610;BME280;51019;46.090;6.350;2023-02-23T02:50:52;96262.50;;;5.89;100.00
64610;BME280;51019;46.090;6.350;2023-02-23T02:53:29;96260.34;;;5.82;100.00
64610;BME280;51019;46.090;6.350;2023-02-23T02:56:02;96257.75;;;5.82;100.00
64610;BME280;51019;46.090;6.350;2023-02-23T02:58:31;96219.72;;;5.59;100.00
64610;BME280;51019;46.090;6.350;2023-02-23T03:01:05;96248.44;;;5.69;100.00
64610;BME280;51019;46.090;6.350;2023-02-23T03:03:50;96252.34;;;5.74;100.00
64610;BME280;51019;46.090;6.350;2023-02-23T03:06:42;96248.66;;;5.66;100.00
64610;BME280;51019;46.090;6.350;2023-02-23T03:09:35;96258.47;;;5.84;100.00
64610;BME280;51019;46.090;6.350;2023-02-23T03:12:31;96210.16;;;5.37;100.00
64610;BME280;51019;46.090;6.350;2023-02-23T03:15:31;96252.09;;;5.66;100.00
64610;BME280;51019;46.090;6.350;2023-02-23T03:18:39;96247.97;;;5.64;100.00
64610;BME280;51019;46.090;6.350;2023-02-23T03:21:34;96244.56;;;5.52;100.00
64610;BME280;51019;46.090;6.350;2023-02-23T03:24:27;96248.53;;;5.56;100.00
64610;BME280;51019;46.090;6.350;2023-02-23T03:27:21;96243.94;;;5.60;100.00
64610;BME280;51019;46.090;6.350;2023-02-23T03:30:14;96248.19;;;5.61;100.00
64610;BME280;51019;46.090;6.350;2023-02-23T03:33:05;96249.50;;;5.44;100.00
64610;BME280;51019;46.090;6.350;2023-02-23T03:35:56;96257.66;;;5.39;100.00
64610;BME280;51019;46.090;6.350;2023-02-23T03:38:48;96259.31;;;5.40;100.00
64610;BME280;51019;46.090;6.350;2023-02-23T03:41:34;96250.91;;;5.48;100.00
64610;BME280;51019;46.090;6.350;2023-02-23T03:44:24;96225.38;;;5.53;100.00
64610;BME280;51019;46.090;6.350;2023-02-23T03:47:13;96219.50;;;5.62;100.00
64610;BME280;51019;46.090;6.350;2023-02-23T03:50:03;96234.94;;;5.86;100.00
64610;BME280;51019;46.090;6.350;2023-02-23T03:52:53;96249.34;;;6.01;100.00
64610;BME280;51019;46.090;6.350;2023-02-23T03:55:41;96260.13;;;5.97;100.00
64610;BME280;51019;46.090;6.350;2023-02-23T03:58:30;96260.59;;;5.91;100.00
64610;BME280;51019;46.090;6.350;2023-02-23T04:01:18;96270.06;;;5.92;100.00
64610;BME280;51019;46.090;6.350;2023-02-23T04:04:05;96263.31;;;6.00;100.00
64610;BME280;51019;46.090;6.350;2023-02-23T04:06:53;96264.50;;;6.07;100.00
64610;BME280;51019;46.090;6.350;2023-02-23T04:09:39;96268.41;;;6.02;100.00
64610;BME280;51019;46.090;6.350;2023-02-23T04:12:28;96262.16;;;5.93;100.00
64610;BME280;51019;46.090;6.350;2023-02-23T04:15:20;96260.81;;;5.99;100.00
64610;BME280;51019;46.090;6.350;2023-02-23T04:17:52;96260.81;;;5.99;100.00
64610;BME280;51019;46.090;6.350;2023-02-23T04:20:20;96264.97;;;6.01;100.00
64610;BME280;51019;46.090;6.350;2023-02-23T04:22:47;96263.41;;;5.88;100.00
64610;BME280;51019;46.090;6.350;2023-02-23T04:25:16;96269.09;;;5.81;100.00
64610;BME280;51019;46.090;6.350;2023-02-23T04:27:47;96183.94;;;5.29;100.00
64610;BME280;51019;46.090;6.350;2023-02-23T04:30:17;96257.28;;;5.89;100.00
64610;BME280;51019;46.090;6.350;2023-02-23T04:32:45;96252.31;;;5.86;100.00
64610;BME280;51019;46.090;6.350;2023-02-23T04:35:14;96254.66;;;6.11;100.00
64610;BME280;51019;46.090;6.350;2023-02-23T04:37:41;96256.78;;;6.17;100.00
64610;BME280;51019;46.090;6.350;2023-02-23T04:40:10;96252.31;;;6.08;100.00
64610;BME280;51019;46.090;6.350;2023-02-23T04:42:38;96253.50;;;6.04;100.00
64610;BME280;51019;46.090;6.350;2023-02-23T04:45:07;96252.09;;;5.89;100.00
64610;BME280;51019;46.090;6.350;2023-02-23T04:47:35;96248.53;;;6.01;100.00
64610;BME280;51019;46.090;6.350;2023-02-23T04:50:04;96225.50;;;5.74;100.00
64610;BME280;51019;46.090;6.350;2023-02-23T04:52:33;96244.50;;;6.08;100.00
64610;BME280;51019;46.090;6.350;2023-02-23T04:55:02;96254.22;;;6.06;100.00
64610;BME280;51019;46.090;6.350;2023-02-23T04:57:29;96255.03;;;6.06;100.00
64610;BME280;51019;46.090;6.350;2023-02-23T04:59:57;96253.72;;;6.12;100.00
64610;BME280;51019;46.090;6.350;2023-02-23T05:02:24;96256.56;;;6.20;100.00
64610;BME280;51019;46.090;6.350;2023-02-23T05:04:52;96263.56;;;6.08;100.00
64610;BME280;51019;46.090;6.350;2023-02-23T05:07:22;96237.69;;;5.96;100.00
64610;BME280;51019;46.090;6.350;2023-02-23T05:09:52;96254.22;;;5.95;100.00
64610;BME280;51019;46.090;6.350;2023-02-23T05:12:19;96255.19;;;5.94;100.00
64610;BME280;51019;46.090;6.350;2023-02-23T05:14:47;96223.59;;;5.65;100.00
64610;BME280;51019;46.090;6.350;2023-02-23T05:17:14;96252.78;;;5.79;100.00
64610;BME280;51019;46.090;6.350;2023-02-23T05:19:42;96259.53;;;5.82;100.00
64610;BME280;51019;46.090;6.350;2023-02-23T05:22:09;96247.97;;;5.64;100.00
64610;BME280;51019;46.090;6.350;2023-02-23T05:24:37;96256.81;;;5.72;100.00
64610;BME280;51019;46.090;6.350;2023-02-23T05:27:11;96253.75;;;5.67;100.00
64610;BME280;51019;46.090;6.350;2023-02-23T05:29:40;96256.72;;;5.63;100.00
64610;BME280;51019;46.090;6.350;2023-02-23T05:32:07;96247.59;;;5.57;100.00
64610;BME280;51019;46.090;6.350;2023-02-23T05:34:35;96245.94;;;5.56;100.00
64610;BME280;51019;46.090;6.350;2023-02-23T05:37:05;96253.84;;;5.66;100.00
64610;BME280;51019;46.090;6.350;2023-02-23T05:39:33;96195.41;;;5.27;100.00
64610;BME280;51019;46.090;6.350;2023-02-23T05:42:00;96248.66;;;5.66;100.00
64610;BME280;51019;46.090;6.350;2023-02-23T05:44:31;96241.00;;;5.64;100.00
64610;BME280;51019;46.090;6.350;2023-02-23T05:46:58;96234.59;;;5.57;100.00
64610;BME280;51019;46.090;6.350;2023-02-23T05:49:27;96244.19;;;5.57;100.00
64610;BME280;51019;46.090;6.350;2023-02-23T05:51:55;96247.84;;;5.54;100.00
64610;BME280;51019;46.090;6.350;2023-02-23T05:54:22;96245.38;;;5.53;100.00
64610;BME280;51019;46.090;6.350;2023-02-23T05:56:50;96223.03;;;5.39;100.00
64610;BME280;51019;46.090;6.350;2023-02-23T05:59:18;96191.16;;;5.15;100.00
64610;BME280;51019;46.090;6.350;2023-02-23T06:01:47;96251.63;;;5.50;100.00
64610;BME280;51019;46.090;6.350;2023-02-23T06:04:15;96241.13;;;5.52;100.00
64610;BME280;51019;46.090;6.350;2023-02-23T06:06:43;96242.41;;;5.46;100.00
64610;BME280;51019;46.090;6.350;2023-02-23T06:09:11;96208.16;;;5.30;100.00
64610;BME280;51019;46.090;6.350;2023-02-23T06:11:38;96234.00;;;5.54;100.00
64610;BME280;51019;46.090;6.350;2023-02-23T06:14:05;96236.38;;;5.45;100.00
64610;BME280;51019;46.090;6.350;2023-02-23T06:16:33;96233.19;;;5.42;100.00
64610;BME280;51019;46.090;6.350;2023-02-23T06:19:03;96234.50;;;5.36;100.00
64610;BME280;51019;46.090;6.350;2023-02-23T06:21:30;96235.31;;;5.37;100.00
64610;BME280;51019;46.090;6.350;2023-02-23T06:23:57;96215.97;;;5.19;100.00
64610;BME280;51019;46.090;6.350;2023-02-23T06:26:26;96241.13;;;5.29;100.00
64610;BME280;51019;46.090;6.350;2023-02-23T06:28:53;96245.38;;;5.30;100.00
64610;BME280;51019;46.090;6.350;2023-02-23T06:31:21;96242.16;;;5.27;100.00
64610;BME280;51019;46.090;6.350;2023-02-23T06:33:49;96242.28;;;5.25;100.00
64610;BME280;51019;46.090;6.350;2023-02-23T06:36:18;96246.44;;;5.28;100.00
64610;BME280;51019;46.090;6.350;2023-02-23T06:38:46;96211.59;;;5.19;100.00
64610;BME280;51019;46.090;6.350;2023-02-23T06:41:14;96245.13;;;5.44;100.00
64610;BME280;51019;46.090;6.350;2023-02-23T06:43:42;96241.22;;;5.28;100.00
64610;BME280;51019;46.090;6.350;2023-02-23T06:46:09;96255.63;;;5.32;100.00
64610;BME280;51019;46.090;6.350;2023-02-23T06:48:37;96252.44;;;5.28;100.00
64610;BME280;51019;46.090;6.350;2023-02-23T06:51:05;96249.50;;;5.33;100.00
64610;BME280;51019;46.090;6.350;2023-02-23T06:53:36;96263.69;;;5.40;100.00
64610;BME280;51019;46.090;6.350;2023-02-23T06:56:04;96253.41;;;5.38;100.00
64610;BME280;51019;46.090;6.350;2023-02-23T06:58:32;96263.19;;;5.46;100.00
64610;BME280;51019;46.090;6.350;2023-02-23T07:00:59;96267.81;;;5.54;100.00
64610;BME280;51019;46.090;6.350;2023-02-23T07:03:27;96207.56;;;5.26;100.00
64610;BME280;51019;46.090;6.350;2023-02-23T07:05:54;96273.97;;;5.75;100.00
64610;BME280;51019;46.090;6.350;2023-02-23T07:08:22;96251.84;;;5.80;100.00
64610;BME280;51019;46.090;6.350;2023-02-23T07:10:51;96274.06;;;6.07;100.00
64610;BME280;51019;46.090;6.350;2023-02-23T07:13:18;96271.59;;;6.05;100.00
64610;BME280;51019;46.090;6.350;2023-02-23T07:15:46;96251.59;;;6.06;100.00
64610;BME280;51019;46.090;6.350;2023-02-23T07:18:14;96265.50;;;6.27;100.00
64610;BME280;51019;46.090;6.350;2023-02-23T07:20:41;96218.25;;;6.00;100.00
64610;BME280;51019;46.090;6.350;2023-02-23T07:23:09;96279.53;;;6.47;100.00
64610;BME280;51019;46.090;6.350;2023-02-23T07:25:37;96278.72;;;6.67;100.00
64610;BME280;51019;46.090;6.350;2023-02-23T07:28:06;96264.88;;;6.67;100.00
64610;BME280;51019;46.090;6.350;2023-02-23T07:30:33;96284.94;;;6.87;100.00
64610;BME280;51019;46.090;6.350;2023-02-23T07:33:01;96273.16;;;6.92;100.00
64610;BME280;51019;46.090;6.350;2023-02-23T07:35:29;96279.41;;;7.01;100.00
64610;BME280;51019;46.090;6.350;2023-02-23T07:37:56;96286.72;;;7.07;100.00
64610;BME280;51019;46.090;6.350;2023-02-23T07:40:23;96277.31;;;7.16;100.00
64610;BME280;51019;46.090;6.350;2023-02-23T07:42:51;96282.72;;;7.45;100.00
64610;BME280;51019;46.090;6.350;2023-02-23T07:45:21;96283.22;;;7.69;100.00
64610;BME280;51019;46.090;6.350;2023-02-23T07:47:49;96280.31;;;8.02;100.00
64610;BME280;51019;46.090;6.350;2023-02-23T07:50:17;96288.75;;;8.25;100.00
64610;BME280;51019;46.090;6.350;2023-02-23T07:52:44;96281.16;;;8.43;100.00
64610;BME280;51019;46.090;6.350;2023-02-23T07:55:12;96287.34;;;8.71;100.00
64610;BME280;51019;46.090;6.350;2023-02-23T07:57:39;96285.84;;;8.88;100.00
64610;BME280;51019;46.090;6.350;2023-02-23T08:00:08;96279.22;;;8.93;100.00
64610;BME280;51019;46.090;6.350;2023-02-23T08:02:38;96286.13;;;8.75;100.00
64610;BME280;51019;46.090;6.350;2023-02-23T08:05:06;96281.28;;;9.09;100.00
64610;BME280;51019;46.090;6.350;2023-02-23T08:07:33;96283.03;;;9.28;100.00
64610;BME280;51019;46.090;6.350;2023-02-23T08:10:01;96275.06;;;9.20;100.00
64610;BME280;51019;46.090;6.350;2023-02-23T08:12:29;96266.69;;;9.16;100.00
64610;BME280;51019;46.090;6.350;2023-02-23T08:14:57;96244.91;;;9.35;100.00
64610;BME280;51019;46.090;6.350;2023-02-23T08:17:25;96274.50;;;9.35;100.00
64610;BME280;51019;46.090;6.350;2023-02-23T08:19:54;96272.59;;;9.28;100.00
64610;BME280;51019;46.090;6.350;2023-02-23T08:22:22;96274.41;;;9.64;100.00
64610;BME280;51019;46.090;6.350;2023-02-23T08:24:49;96270.84;;;9.65;100.00
64610;BME280;51019;46.090;6.350;2023-02-23T08:27:17;96261.38;;;9.82;100.00
64610;BME280;51019;46.090;6.350;2023-02-23T08:29:44;96256.66;;;9.95;100.00
64610;BME280;51019;46.090;6.350;2023-02-23T08:32:11;96257.78;;;9.93;100.00
64610;BME280;51019;46.090;6.350;2023-02-23T08:34:41;96265.00;;;9.81;100.00
64610;BME280;51019;46.090;6.350;2023-02-23T08:37:11;96260.59;;;9.81;100.00
64610;BME280;51019;46.090;6.350;2023-02-23T08:39:38;96247.84;;;9.69;100.00
64610;BME280;51019;46.090;6.350;2023-02-23T08:42:06;96148.75;;;9.56;100.00
64610;BME280;51019;46.090;6.350;2023-02-23T08:44:33;96234.53;;;10.07;100.00
64610;BME280;51019;46.090;6.350;2023-02-23T08:47:01;96254.38;;;10.10;100.00
64610;BME280;51019;46.090;6.350;2023-02-23T08:49:29;96221.81;;;10.40;100.00
64610;BME280;51019;46.090;6.350;2023-02-23T08:51:57;96250.59;;;10.67;100.00
64610;BME280;51019;46.090;6.350;2023-02-23T08:54:29;96248.88;;;10.58;100.00
64610;BME280;51019;46.090;6.350;2023-02-23T08:56:56;96250.97;;;10.37;100.00
64610;BME280;51019;46.090;6.350;2023-02-23T08:59:25;96247.59;;;10.80;100.00
64610;BME280;51019;46.090;6.350;2023-02-23T09:01:53;96241.97;;;10.93;100.00
64610;BME280;51019;46.090;6.350;2023-02-23T09:04:20;96238.16;;;10.87;100.00
64610;BME280;51019;46.090;6.350;2023-02-23T09:06:48;96255.78;;;11.20;100.00
64610;BME280;51019;46.090;6.350;2023-02-23T09:09:15;96251.59;;;11.27;100.00
64610;BME280;51019;46.090;6.350;2023-02-23T09:11:45;96242.34;;;10.80;100.00
64610;BME280;51019;46.090;6.350;2023-02-23T09:14:13;96247.84;;;11.12;100.00
64610;BME280;51019;46.090;6.350;2023-02-23T09:16:40;96228.84;;;11.62;100.00
64610;BME280;51019;46.090;6.350;2023-02-23T09:19:09;96251.56;;;12.13;100.00
64610;BME280;51019;46.090;6.350;2023-02-23T09:21:36;96248.81;;;11.81;100.00
64610;BME280;51019;46.090;6.350;2023-02-23T09:24:05;96250.59;;;11.54;100.00
64610;BME280;51019;46.090;6.350;2023-02-23T09:26:32;96251.09;;;12.18;100.00
64610;BME280;51019;46.090;6.350;2023-02-23T09:29:06;96243.38;;;12.16;100.00
64610;BME280;51019;46.090;6.350;2023-02-23T09:31:33;96244.44;;;12.40;100.00
64610;BME280;51019;46.090;6.350;2023-02-23T09:34:01;96247.47;;;13.01;100.00
64610;BME280;51019;46.090;6.350;2023-02-23T09:36:29;96193.06;;;12.94;100.00
64610;BME280;51019;46.090;6.350;2023-02-23T09:38:57;96255.84;;;12.89;100.00
64610;BME280;51019;46.090;6.350;2023-02-23T09:41:49;96218.16;;;12.40;100.00
64610;BME280;51019;46.090;6.350;2023-02-23T09:44:28;96251.34;;;12.41;100.00
64610;BME280;51019;46.090;6.350;2023-02-23T09:47:12;96252.19;;;12.57;100.00
64610;BME280;51019;46.090;6.350;2023-02-23T09:49:47;96244.75;;;12.36;100.00
64610;BME280;51019;46.090;6.350;2023-02-23T09:52:19;96245.25;;;12.40;100.00
64610;BME280;51019;46.090;6.350;2023-02-23T09:54:49;96246.47;;;13.10;100.00
64610;BME280;51019;46.090;6.350;2023-02-23T09:57:20;96251.13;;;14.43;100.00
64610;BME280;51019;46.090;6.350;2023-02-23T09:59:51;96197.66;;;14.18;96.24
64610;BME280;51019;46.090;6.350;2023-02-23T10:02:23;96245.97;;;14.50;98.24
64610;BME280;51019;46.090;6.350;2023-02-23T10:04:58;96249.88;;;14.85;95.59
64610;BME280;51019;46.090;6.350;2023-02-23T10:07:29;96251.91;;;14.05;99.83
64610;BME280;51019;46.090;6.350;2023-02-23T10:10:09;96246.81;;;14.73;96.72
64610;BME280;51019;46.090;6.350;2023-02-23T10:12:51;96254.47;;;15.29;93.21
64610;BME280;51019;46.090;6.350;2023-02-23T10:15:34;96242.28;;;16.09;81.39
64610;BME280;51019;46.090;6.350;2023-02-23T10:18:13;96250.09;;;16.47;79.79
64610;BME280;51019;46.090;6.350;2023-02-23T10:20:51;96238.19;;;15.40;80.26
64610;BME280;51019;46.090;6.350;2023-02-23T10:23:27;96231.56;;;14.61;85.38
64610;BME280;51019;46.090;6.350;2023-02-23T10:25:59;96237.97;;;14.89;81.33
64610;BME280;51019;46.090;6.350;2023-02-23T10:28:33;96242.03;;;15.14;81.49
64610;BME280;51019;46.090;6.350;2023-02-23T10:31:06;96147.47;;;14.66;78.77
64610;BME280;51019;46.090;6.350;2023-02-23T10:33:42;96234.69;;;14.25;84.02
64610;BME280;51019;46.090;6.350;2023-02-23T10:36:14;96241.16;;;15.59;76.95
64610;BME280;51019;46.090;6.350;2023-02-23T10:38:43;96238.72;;;13.58;85.30
64610;BME280;51019;46.090;6.350;2023-02-23T10:41:11;96251.06;;;13.00;90.27
64610;BME280;51019;46.090;6.350;2023-02-23T10:43:39;96244.44;;;12.40;93.55
64610;BME280;51019;46.090;6.350;2023-02-23T10:46:16;96237.97;;;12.26;95.98
64610;BME280;51019;46.090;6.350;2023-02-23T10:48:46;96230.28;;;12.32;98.10
64610;BME280;51019;46.090;6.350;2023-02-23T10:51:18;96221.72;;;12.22;99.39
64610;BME280;51019;46.090;6.350;2023-02-23T10:53:48;96236.94;;;12.93;98.03
64610;BME280;51019;46.090;6.350;2023-02-23T10:56:18;96229.75;;;15.07;82.12
64610;BME280;51019;46.090;6.350;2023-02-23T10:58:49;96235.63;;;15.69;77.35
64610;BME280;51019;46.090;6.350;2023-02-23T11:01:32;96231.41;;;16.33;75.40
64610;BME280;51019;46.090;6.350;2023-02-23T11:04:12;96231.53;;;17.47;67.54
64610;BME280;51019;46.090;6.350;2023-02-23T11:06:42;96231.63;;;16.68;72.33
64610;BME280;51019;46.090;6.350;2023-02-23T11:09:20;96219.84;;;17.13;71.98
64610;BME280;51019;46.090;6.350;2023-02-23T11:12:00;96231.72;;;18.07;67.78
64610;BME280;51019;46.090;6.350;2023-02-23T11:14:30;96224.03;;;16.14;72.69
64610;BME280;51019;46.090;6.350;2023-02-23T11:17:00;96209.00;;;14.81;79.18
64610;BME280;51019;46.090;6.350;2023-02-23T11:19:32;96228.56;;;13.94;85.77
64610;BME280;51019;46.090;6.350;2023-02-23T11:22:02;96202.72;;;13.50;85.73
64610;BME280;51019;46.090;6.350;2023-02-23T11:24:33;96230.22;;;13.31;87.22
64610;BME280;51019;46.090;6.350;2023-02-23T11:27:03;96229.91;;;13.18;87.40
64610;BME280;51019;46.090;6.350;2023-02-23T11:29:34;96217.84;;;13.48;88.00
64610;BME280;51019;46.090;6.350;2023-02-23T11:32:08;96212.22;;;14.91;81.16
64610;BME280;51019;46.090;6.350;2023-02-23T11:34:39;96220.00;;;15.45;78.10
64610;BME280;51019;46.090;6.350;2023-02-23T11:37:19;96179.25;;;15.24;77.12
64610;BME280;51019;46.090;6.350;2023-02-23T11:39:51;96201.69;;;16.17;73.81
64610;BME280;51019;46.090;6.350;2023-02-23T11:42:20;96204.09;;;14.78;80.95
64610;BME280;51019;46.090;6.350;2023-02-23T11:44:51;96194.16;;;16.14;76.62
64610;BME280;51019;46.090;6.350;2023-02-23T11:47:22;96200.31;;;16.36;71.52
64610;BME280;51019;46.090;6.350;2023-02-23T11:49:50;96198.09;;;15.88;73.30
64610;BME280;51019;46.090;6.350;2023-02-23T11:52:21;96200.31;;;15.47;75.74
64610;BME280;51019;46.090;6.350;2023-02-23T11:54:54;96203.88;;;16.64;69.37
64610;BME280;51019;46.090;6.350;2023-02-23T11:57:24;96196.97;;;17.61;66.50
64610;BME280;51019;46.090;6.350;2023-02-23T11:59:53;96182.06;;;17.88;64.04
64610;BME280;51019;46.090;6.350;2023-02-23T12:02:25;96190.81;;;19.04;59.83
64610;BME280;51019;46.090;6.350;2023-02-23T12:05:02;96166.88;;;19.43;56.91
64610;BME280;51019;46.090;6.350;2023-02-23T12:07:35;96185.91;;;19.53;55.50
64610;BME280;51019;46.090;6.350;2023-02-23T12:10:18;96179.09;;;19.97;55.00
64610;BME280;51019;46.090;6.350;2023-02-23T12:12:54;96177.13;;;19.53;55.49
64610;BME280;51019;46.090;6.350;2023-02-23T12:15:30;96174.13;;;17.95;58.52
64610;BME280;51019;46.090;6.350;2023-02-23T12:18:07;96178.06;;;16.87;65.54
64610;BME280;51019;46.090;6.350;2023-02-23T12:20:40;96143.66;;;17.71;59.37
64610;BME280;51019;46.090;6.350;2023-02-23T12:23:14;96163.31;;;17.62;61.84
64610;BME280;51019;46.090;6.350;2023-02-23T12:25:45;96167.31;;;16.31;66.38
64610;BME280;51019;46.090;6.350;2023-02-23T12:28:18;96160.53;;;18.04;60.23
64610;BME280;51019;46.090;6.350;2023-02-23T12:30:53;96157.50;;;19.54;55.58
64610;BME280;51019;46.090;6.350;2023-02-23T12:33:26;96156.25;;;18.64;59.02
64610;BME280;51019;46.090;6.350;2023-02-23T12:36:01;96149.31;;;19.22;56.02
64610;BME280;51019;46.090;6.350;2023-02-23T12:38:38;96151.38;;;19.40;55.76
64610;BME280;51019;46.090;6.350;2023-02-23T12:41:11;96149.97;;;18.18;57.94
64610;BME280;51019;46.090;6.350;2023-02-23T12:43:44;96142.78;;;18.85;56.29
64610;BME280;51019;46.090;6.350;2023-02-23T12:46:20;96099.63;;;18.37;55.56
64610;BME280;51019;46.090;6.350;2023-02-23T12:48:55;96118.28;;;18.70;56.56
64610;BME280;51019;46.090;6.350;2023-02-23T12:51:29;96125.47;;;17.33;61.67
64610;BME280;51019;46.090;6.350;2023-02-23T12:53:59;96118.00;;;16.45;65.73
64610;BME280;51019;46.090;6.350;2023-02-23T12:56:49;96120.94;;;15.78;68.61
64610;BME280;51019;46.090;6.350;2023-02-23T13:02:28;96119.91;;;15.20;71.76
64610;BME280;51019;46.090;6.350;2023-02-23T13:05:15;96097.53;;;14.64;73.96
64610;BME280;51019;46.090;6.350;2023-02-23T13:07:58;96111.03;;;14.84;72.96
64610;BME280;51019;46.090;6.350;2023-02-23T13:10:34;96131.28;;;15.06;72.91
64610;BME280;51019;46.090;6.350;2023-02-23T13:13:15;96107.25;;;14.64;74.57
64610;BME280;51019;46.090;6.350;2023-02-23T13:15:55;96113.41;;;14.56;75.80
64610;BME280;51019;46.090;6.350;2023-02-23T13:18:28;96122.28;;;14.40;76.32
64610;BME280;51019;46.090;6.350;2023-02-23T13:21:06;96108.75;;;14.35;75.84
64610;BME280;51019;46.090;6.350;2023-02-23T13:23:47;96118.31;;;14.44;75.61
64610;BME280;51019;46.090;6.350;2023-02-23T13:26:21;96126.13;;;14.52;74.12
64610;BME280;51019;46.090;6.350;2023-02-23T13:28:58;96126.78;;;14.77;75.84
64610;BME280;51019;46.090;6.350;2023-02-23T13:31:33;96106.72;;;15.20;72.88
64610;BME280;51019;46.090;6.350;2023-02-23T13:34:03;96121.16;;;16.34;68.60
64610;BME280;51019;46.090;6.350;2023-02-23T13:36:47;96060.13;;;16.57;66.21
64610;BME280;51019;46.090;6.350;2023-02-23T13:39:42;96125.63;;;16.33;67.70
64610;BME280;51019;46.090;6.350;2023-02-23T13:42:20;96088.16;;;15.29;70.50
64610;BME280;51019;46.090;6.350;2023-02-23T13:44:59;96111.06;;;15.13;73.65